sensor_id;sensor_type;location;lat;lon;timestamp;temperature;humidity
59146;DHT22;44928;53.074;6.646;2023-05-01T00:00:49;9.40;99.90
59146;DHT22;44928;53.074;6.646;2023-05-01T00:03:15;9.30;99.90
59146;DHT22;44928;53.074;6.646;2023-05-01T00:05:44;9.30;99.90
59146;DHT22;44928;53.074;6.646;2023-05-01T00:08:10;9.30;99.90
59146;DHT22;44928;53.074;6.646;2023-05-01T00:10:37;9.20;99.90
59146;DHT22;44928;53.074;6.646;2023-05-01T00:13:03;9.20;99.90
59146;DHT22;44928;53.074;6.646;2023-05-01T00:15:30;9.20;99.90
59146;DHT22;44928;53.074;6.646;2023-05-01T00:17:56;9.10;99.90
59146;DHT22;44928;53.074;6.646;2023-05-01T00:20:27;9.10;99.90
59146;DHT22;44928;53.074;6.646;2023-05-01T00:22:53;9.10;99.90
59146;DHT22;44928;53.074;6.646;2023-05-01T00:25:19;9.00;99.90
59146;DHT22;44928;53.074;6.646;2023-05-01T00:27:44;9.00;99.90
59146;DHT22;44928;53.074;6.646;2023-05-01T00:30:11;9.00;99.90
59146;DHT22;44928;53.074;6.646;2023-05-01T00:32:36;9.00;99.90
59146;DHT22;44928;53.074;6.646;2023-05-01T00:35:03;9.00;99.90
59146;DHT22;44928;53.074;6.646;2023-05-01T00:37:29;9.00;99.90
59146;DHT22;44928;53.074;6.646;2023-05-01T00:39:55;9.00;99.90
59146;DHT22;44928;53.074;6.646;2023-05-01T00:42:21;9.00;99.90
59146;DHT22;44928;53.074;6.646;2023-05-01T00:44:46;9.00;99.90
59146;DHT22;44928;53.074;6.646;2023-05-01T00:47:12;8.90;99.90
59146;DHT22;44928;53.074;6.646;2023-05-01T00:49:41;8.90;99.90
59146;DHT22;44928;53.074;6.646;2023-05-01T00:52:07;8.90;99.90
59146;DHT22;44928;53.074;6.646;2023-05-01T00:54:38;8.90;99.90
59146;DHT22;44928;53.074;6.646;2023-05-01T00:57:04;8.90;99.90
59146;DHT22;44928;53.074;6.646;2023-05-01T00:59:31;8.80;99.90
59146;DHT22;44928;53.074;6.646;2023-05-01T01:01:57;8.80;99.90
59146;DHT22;44928;53.074;6.646;2023-05-01T01:04:23;8.70;99.90
59146;DHT22;44928;53.074;6.646;2023-05-01T01:15:01;8.50;99.90
59146;DHT22;44928;53.074;6.646;2023-05-01T01:17:52;8.50;99.90
59146;DHT22;44928;53.074;6.646;2023-05-01T01:26:03;8.40;99.90
59146;DHT22;44928;53.074;6.646;2023-05-01T01:34:33;8.30;99.90
59146;DHT22;44928;53.074;6.646;2023-05-01T01:37:22;8.30;99.90
59146;DHT22;44928;53.074;6.646;2023-05-01T01:40:12;8.20;99.90
59146;DHT22;44928;53.074;6.646;2023-05-01T01:42:50;8.20;99.90
59146;DHT22;44928;53.074;6.646;2023-05-01T01:45:21;8.20;99.90
59146;DHT22;44928;53.074;6.646;2023-05-01T01:47:49;8.20;99.90
59146;DHT22;44928;53.074;6.646;2023-05-01T01:50:17;8.20;99.90
59146;DHT22;44928;53.074;6.646;2023-05-01T01:52:48;8.20;99.90
59146;DHT22;44928;53.074;6.646;2023-05-01T01:55:15;8.20;99.90
59146;DHT22;44928;53.074;6.646;2023-05-01T01:57:44;8.10;99.90
59146;DHT22;44928;53.074;6.646;2023-05-01T02:00:11;8.10;99.90
59146;DHT22;44928;53.074;6.646;2023-05-01T02:02:38;8.00;99.90
59146;DHT22;44928;53.074;6.646;2023-05-01T02:05:12;8.00;99.90
59146;DHT22;44928;53.074;6.646;2023-05-01T02:07:39;8.00;99.90
59146;DHT22;44928;53.074;6.646;2023-05-01T02:10:07;8.00;99.90
59146;DHT22;44928;53.074;6.646;2023-05-01T02:12:35;8.00;99.90
59146;DHT22;44928;53.074;6.646;2023-05-01T02:15:02;8.00;99.90
59146;DHT22;44928;53.074;6.646;2023-05-01T02:17:29;7.90;99.90
59146;DHT22;44928;53.074;6.646;2023-05-01T02:19:56;7.90;99.90
59146;DHT22;44928;53.074;6.646;2023-05-01T02:22:24;7.90;99.90
59146;DHT22;44928;53.074;6.646;2023-05-01T02:24:52;7.80;99.90
59146;DHT22;44928;53.074;6.646;2023-05-01T02:27:36;7.80;99.90
59146;DHT22;44928;53.074;6.646;2023-05-01T02:30:03;7.80;99.90
59146;DHT22;44928;53.074;6.646;2023-05-01T02:32:30;7.70;99.90
59146;DHT22;44928;53.074;6.646;2023-05-01T02:34:56;7.70;99.90
59146;DHT22;44928;53.074;6.646;2023-05-01T02:37:22;7.70;99.90
59146;DHT22;44928;53.074;6.646;2023-05-01T02:39:48;7.60;99.90
59146;DHT22;44928;53.074;6.646;2023-05-01T02:42:15;7.60;99.90
59146;DHT22;44928;53.074;6.646;2023-05-01T02:44:56;7.60;99.90
59146;DHT22;44928;53.074;6.646;2023-05-01T02:47:23;7.60;99.90
59146;DHT22;44928;53.074;6.646;2023-05-01T02:49:50;7.50;99.90
59146;DHT22;44928;53.074;6.646;2023-05-01T02:52:18;7.50;99.90
59146;DHT22;44928;53.074;6.646;2023-05-01T02:54:44;7.50;99.90
59146;DHT22;44928;53.074;6.646;2023-05-01T02:57:11;7.40;99.90
59146;DHT22;44928;53.074;6.646;2023-05-01T02:59:37;7.40;99.90
59146;DHT22;44928;53.074;6.646;2023-05-01T03:02:03;7.40;99.90
59146;DHT22;44928;53.074;6.646;2023-05-01T03:04:29;7.40;99.90
59146;DHT22;44928;53.074;6.646;2023-05-01T03:06:54;7.30;99.90
59146;DHT22;44928;53.074;6.646;2023-05-01T03:09:21;7.30;99.90
59146;DHT22;44928;53.074;6.646;2023-05-01T03:11:47;7.30;99.90
59146;DHT22;44928;53.074;6.646;2023-05-01T03:14:14;7.20;99.90
59146;DHT22;44928;53.074;6.646;2023-05-01T03:16:40;7.10;99.90
59146;DHT22;44928;53.074;6.646;2023-05-01T03:19:06;7.10;99.90
59146;DHT22;44928;53.074;6.646;2023-05-01T03:21:32;7.00;99.90
59146;DHT22;44928;53.074;6.646;2023-05-01T03:23:58;7.00;99.90
59146;DHT22;44928;53.074;6.646;2023-05-01T03:26:24;6.90;99.90
59146;DHT22;44928;53.074;6.646;2023-05-01T03:28:50;6.90;99.90
59146;DHT22;44928;53.074;6.646;2023-05-01T03:31:16;6.80;99.90
59146;DHT22;44928;53.074;6.646;2023-05-01T03:33:42;6.80;99.90
59146;DHT22;44928;53.074;6.646;2023-05-01T03:36:08;6.80;99.90
59146;DHT22;44928;53.074;6.646;2023-05-01T03:38:36;6.80;99.90
59146;DHT22;44928;53.074;6.646;2023-05-01T03:41:02;6.70;99.90
59146;DHT22;44928;53.074;6.646;2023-05-01T03:43:30;6.80;99.90
59146;DHT22;44928;53.074;6.646;2023-05-01T03:45:56;6.70;99.90
59146;DHT22;44928;53.074;6.646;2023-05-01T03:48:22;6.70;99.90
59146;DHT22;44928;53.074;6.646;2023-05-01T03:50:50;6.70;99.90
59146;DHT22;44928;53.074;6.646;2023-05-01T03:53:16;6.70;99.90
59146;DHT22;44928;53.074;6.646;2023-05-01T03:55:42;6.70;99.90
59146;DHT22;44928;53.074;6.646;2023-05-01T03:58:08;6.70;99.90
59146;DHT22;44928;53.074;6.646;2023-05-01T04:00:35;6.60;99.90
59146;DHT22;44928;53.074;6.646;2023-05-01T04:03:02;6.60;99.90
59146;DHT22;44928;53.074;6.646;2023-05-01T04:05:29;6.60;99.90
59146;DHT22;44928;53.074;6.646;2023-05-01T04:07:55;6.60;99.90
59146;DHT22;44928;53.074;6.646;2023-05-01T04:10:21;6.60;99.90
59146;DHT22;44928;53.074;6.646;2023-05-01T04:12:47;6.50;99.90
59146;DHT22;44928;53.074;6.646;2023-05-01T04:15:13;6.50;99.90
59146;DHT22;44928;53.074;6.646;2023-05-01T04:17:39;6.50;99.90
59146;DHT22;44928;53.074;6.646;2023-05-01T04:20:05;6.50;99.90
59146;DHT22;44928;53.074;6.646;2023-05-01T04:22:32;6.50;99.90
59146;DHT22;44928;53.074;6.646;2023-05-01T04:24:57;6.50;99.90
59146;DHT22;44928;53.074;6.646;2023-05-01T04:27:23;6.50;99.90
59146;DHT22;44928;53.074;6.646;2023-05-01T04:29:49;6.50;99.90
59146;DHT22;44928;53.074;6.646;2023-05-01T04:32:15;6.50;99.90
59146;DHT22;44928;53.074;6.646;2023-05-01T04:34:42;6.50;99.90
59146;DHT22;44928;53.074;6.646;2023-05-01T04:37:09;6.50;99.90
59146;DHT22;44928;53.074;6.646;2023-05-01T04:39:35;6.40;99.90
59146;DHT22;44928;53.074;6.646;2023-05-01T04:42:02;6.50;99.90
59146;DHT22;44928;53.074;6.646;2023-05-01T04:44:28;6.50;99.90
59146;DHT22;44928;53.074;6.646;2023-05-01T04:46:53;6.50;99.90
59146;DHT22;44928;53.074;6.646;2023-05-01T04:49:21;6.50;99.90
59146;DHT22;44928;53.074;6.646;2023-05-01T04:51:47;6.50;99.90
59146;DHT22;44928;53.074;6.646;2023-05-01T04:54:13;6.50;99.90
59146;DHT22;44928;53.074;6.646;2023-05-01T04:56:38;6.50;99.90
59146;DHT22;44928;53.074;6.646;2023-05-01T04:59:04;6.50;99.90
59146;DHT22;44928;53.074;6.646;2023-05-01T05:01:30;6.60;99.90
59146;DHT22;44928;53.074;6.646;2023-05-01T05:03:56;6.60;99.90
59146;DHT22;44928;53.074;6.646;2023-05-01T05:06:22;6.60;99.90
59146;DHT22;44928;53.074;6.646;2023-05-01T05:08:47;6.70;99.90
59146;DHT22;44928;53.074;6.646;2023-05-01T05:11:17;6.70;99.90
59146;DHT22;44928;53.074;6.646;2023-05-01T05:13:44;6.70;99.90
59146;DHT22;44928;53.074;6.646;2023-05-01T05:16:10;6.80;99.90
59146;DHT22;44928;53.074;6.646;2023-05-01T05:18:36;6.80;99.90
59146;DHT22;44928;53.074;6.646;2023-05-01T05:21:06;6.90;99.90
59146;DHT22;44928;53.074;6.646;2023-05-01T05:23:33;6.90;99.90
59146;DHT22;44928;53.074;6.646;2023-05-01T05:25:59;7.00;99.90
59146;DHT22;44928;53.074;6.646;2023-05-01T05:28:28;7.00;99.90
59146;DHT22;44928;53.074;6.646;2023-05-01T05:30:55;7.10;99.90
59146;DHT22;44928;53.074;6.646;2023-05-01T05:33:22;7.10;99.90
59146;DHT22;44928;53.074;6.646;2023-05-01T05:35:50;7.20;99.90
59146;DHT22;44928;53.074;6.646;2023-05-01T05:38:16;7.30;99.90
59146;DHT22;44928;53.074;6.646;2023-05-01T05:40:42;7.40;99.90
59146;DHT22;44928;53.074;6.646;2023-05-01T05:43:07;7.40;99.90
59146;DHT22;44928;53.074;6.646;2023-05-01T05:45:35;7.50;99.90
59146;DHT22;44928;53.074;6.646;2023-05-01T05:48:02;7.50;99.90
59146;DHT22;44928;53.074;6.646;2023-05-01T05:50:27;7.50;99.90
59146;DHT22;44928;53.074;6.646;2023-05-01T05:52:54;7.60;99.90
59146;DHT22;44928;53.074;6.646;2023-05-01T05:55:20;7.70;99.90
59146;DHT22;44928;53.074;6.646;2023-05-01T05:57:46;7.70;99.90
59146;DHT22;44928;53.074;6.646;2023-05-01T06:00:12;7.80;99.90
59146;DHT22;44928;53.074;6.646;2023-05-01T06:02:39;7.80;99.90
59146;DHT22;44928;53.074;6.646;2023-05-01T06:05:05;7.90;99.90
59146;DHT22;44928;53.074;6.646;2023-05-01T06:07:31;7.90;99.90
59146;DHT22;44928;53.074;6.646;2023-05-01T06:09:57;8.00;99.90
59146;DHT22;44928;53.074;6.646;2023-05-01T06:12:29;8.00;99.90
59146;DHT22;44928;53.074;6.646;2023-05-01T06:14:57;8.10;99.90
59146;DHT22;44928;53.074;6.646;2023-05-01T06:17:25;8.20;99.90
59146;DHT22;44928;53.074;6.646;2023-05-01T06:19:51;8.30;99.90
59146;DHT22;44928;53.074;6.646;2023-05-01T06:22:20;8.30;99.90
59146;DHT22;44928;53.074;6.646;2023-05-01T06:24:46;8.40;99.90
59146;DHT22;44928;53.074;6.646;2023-05-01T06:27:12;8.40;99.90
59146;DHT22;44928;53.074;6.646;2023-05-01T06:29:38;8.50;99.90
59146;DHT22;44928;53.074;6.646;2023-05-01T06:32:04;8.60;99.90
59146;DHT22;44928;53.074;6.646;2023-05-01T06:34:30;8.60;99.90
59146;DHT22;44928;53.074;6.646;2023-05-01T06:36:56;8.70;99.90
59146;DHT22;44928;53.074;6.646;2023-05-01T06:39:21;8.70;99.90
59146;DHT22;44928;53.074;6.646;2023-05-01T06:41:47;8.80;99.90
59146;DHT22;44928;53.074;6.646;2023-05-01T06:44:14;8.80;99.90
59146;DHT22;44928;53.074;6.646;2023-05-01T06:46:40;8.90;99.90
59146;DHT22;44928;53.074;6.646;2023-05-01T06:49:05;9.00;99.90
59146;DHT22;44928;53.074;6.646;2023-05-01T06:51:31;9.10;99.90
59146;DHT22;44928;53.074;6.646;2023-05-01T06:53:57;9.10;99.90
59146;DHT22;44928;53.074;6.646;2023-05-01T06:56:23;9.20;99.90
59146;DHT22;44928;53.074;6.646;2023-05-01T06:58:49;9.30;99.90
59146;DHT22;44928;53.074;6.646;2023-05-01T07:01:15;9.30;99.90
59146;DHT22;44928;53.074;6.646;2023-05-01T07:03:42;9.40;99.90
59146;DHT22;44928;53.074;6.646;2023-05-01T07:06:08;9.50;99.90
59146;DHT22;44928;53.074;6.646;2023-05-01T07:08:34;9.60;99.90
59146;DHT22;44928;53.074;6.646;2023-05-01T07:11:00;9.60;99.90
59146;DHT22;44928;53.074;6.646;2023-05-01T07:13:26;9.70;99.90
59146;DHT22;44928;53.074;6.646;2023-05-01T07:15:52;9.80;99.90
59146;DHT22;44928;53.074;6.646;2023-05-01T07:18:18;9.80;99.90
59146;DHT22;44928;53.074;6.646;2023-05-01T07:20:44;9.90;99.90
59146;DHT22;44928;53.074;6.646;2023-05-01T07:23:10;10.00;99.90
59146;DHT22;44928;53.074;6.646;2023-05-01T07:25:36;10.10;99.90
59146;DHT22;44928;53.074;6.646;2023-05-01T07:28:11;10.20;99.90
59146;DHT22;44928;53.074;6.646;2023-05-01T07:30:36;10.30;99.90
59146;DHT22;44928;53.074;6.646;2023-05-01T07:33:02;10.40;99.90
59146;DHT22;44928;53.074;6.646;2023-05-01T07:35:30;10.40;99.90
59146;DHT22;44928;53.074;6.646;2023-05-01T07:37:57;10.50;99.90
59146;DHT22;44928;53.074;6.646;2023-05-01T07:40:22;10.60;99.90
59146;DHT22;44928;53.074;6.646;2023-05-01T07:42:48;10.70;99.90
59146;DHT22;44928;53.074;6.646;2023-05-01T07:45:14;10.80;99.90
59146;DHT22;44928;53.074;6.646;2023-05-01T07:47:40;10.90;99.90
59146;DHT22;44928;53.074;6.646;2023-05-01T07:50:09;11.00;99.90
59146;DHT22;44928;53.074;6.646;2023-05-01T07:52:36;11.10;99.90
59146;DHT22;44928;53.074;6.646;2023-05-01T07:55:02;11.20;99.90
59146;DHT22;44928;53.074;6.646;2023-05-01T07:57:29;11.30;99.90
59146;DHT22;44928;53.074;6.646;2023-05-01T07:59:58;11.40;99.90
59146;DHT22;44928;53.074;6.646;2023-05-01T08:02:24;11.50;99.90
59146;DHT22;44928;53.074;6.646;2023-05-01T08:04:50;11.70;99.90
59146;DHT22;44928;53.074;6.646;2023-05-01T08:07:16;11.80;99.90
59146;DHT22;44928;53.074;6.646;2023-05-01T08:09:42;11.90;99.90
59146;DHT22;44928;53.074;6.646;2023-05-01T08:12:08;11.90;99.90
59146;DHT22;44928;53.074;6.646;2023-05-01T08:14:33;12.00;99.90
59146;DHT22;44928;53.074;6.646;2023-05-01T08:16:59;12.10;99.90
59146;DHT22;44928;53.074;6.646;2023-05-01T08:19:25;12.10;99.90
59146;DHT22;44928;53.074;6.646;2023-05-01T08:21:52;12.20;99.90
59146;DHT22;44928;53.074;6.646;2023-05-01T08:24:18;12.30;99.90
59146;DHT22;44928;53.074;6.646;2023-05-01T08:26:44;12.40;99.90
59146;DHT22;44928;53.074;6.646;2023-05-01T08:29:10;12.50;99.90
59146;DHT22;44928;53.074;6.646;2023-05-01T08:31:36;12.50;99.90
59146;DHT22;44928;53.074;6.646;2023-05-01T08:34:04;12.60;99.90
59146;DHT22;44928;53.074;6.646;2023-05-01T08:36:30;12.70;99.90
59146;DHT22;44928;53.074;6.646;2023-05-01T08:38:57;12.70;99.90
59146;DHT22;44928;53.074;6.646;2023-05-01T08:41:22;12.80;99.90
59146;DHT22;44928;53.074;6.646;2023-05-01T08:43:49;12.90;99.90
59146;DHT22;44928;53.074;6.646;2023-05-01T08:46:32;13.10;99.90
59146;DHT22;44928;53.074;6.646;2023-05-01T08:48:59;13.20;99.90
59146;DHT22;44928;53.074;6.646;2023-05-01T08:51:29;13.30;99.90
59146;DHT22;44928;53.074;6.646;2023-05-01T08:53:57;13.40;99.90
59146;DHT22;44928;53.074;6.646;2023-05-01T08:56:24;13.50;99.90
59146;DHT22;44928;53.074;6.646;2023-05-01T08:58:52;13.70;99.90
59146;DHT22;44928;53.074;6.646;2023-05-01T09:01:19;13.90;99.90
59146;DHT22;44928;53.074;6.646;2023-05-01T09:03:47;14.10;99.90
59146;DHT22;44928;53.074;6.646;2023-05-01T09:06:14;14.20;99.90
59146;DHT22;44928;53.074;6.646;2023-05-01T09:08:40;14.30;99.90
59146;DHT22;44928;53.074;6.646;2023-05-01T09:11:06;14.40;99.40
59146;DHT22;44928;53.074;6.646;2023-05-01T09:13:32;14.50;99.50
59146;DHT22;44928;53.074;6.646;2023-05-01T09:15:58;14.70;99.20
59146;DHT22;44928;53.074;6.646;2023-05-01T09:18:25;14.80;96.70
59146;DHT22;44928;53.074;6.646;2023-05-01T09:20:51;14.90;95.30
59146;DHT22;44928;53.074;6.646;2023-05-01T09:23:18;15.00;95.90
59146;DHT22;44928;53.074;6.646;2023-05-01T09:25:45;15.20;92.80
59146;DHT22;44928;53.074;6.646;2023-05-01T09:28:11;15.30;93.40
59146;DHT22;44928;53.074;6.646;2023-05-01T09:30:38;15.40;93.70
59146;DHT22;44928;53.074;6.646;2023-05-01T09:33:14;15.50;93.40
59146;DHT22;44928;53.074;6.646;2023-05-01T09:38:19;15.70;93.60
59146;DHT22;44928;53.074;6.646;2023-05-01T09:40:45;15.90;94.20
59146;DHT22;44928;53.074;6.646;2023-05-01T09:43:11;16.00;92.20
59146;DHT22;44928;53.074;6.646;2023-05-01T09:45:37;16.20;94.20
59146;DHT22;44928;53.074;6.646;2023-05-01T09:48:09;16.50;94.70
59146;DHT22;44928;53.074;6.646;2023-05-01T09:50:35;16.70;92.00
59146;DHT22;44928;53.074;6.646;2023-05-01T09:53:04;16.80;93.20
59146;DHT22;44928;53.074;6.646;2023-05-01T09:55:31;16.90;87.70
59146;DHT22;44928;53.074;6.646;2023-05-01T09:57:57;17.00;84.20
59146;DHT22;44928;53.074;6.646;2023-05-01T10:00:24;17.20;84.20
59146;DHT22;44928;53.074;6.646;2023-05-01T10:02:50;17.30;78.40
59146;DHT22;44928;53.074;6.646;2023-05-01T10:05:17;17.50;70.70
59146;DHT22;44928;53.074;6.646;2023-05-01T10:07:58;17.60;71.10
59146;DHT22;44928;53.074;6.646;2023-05-01T10:10:24;17.80;72.60
59146;DHT22;44928;53.074;6.646;2023-05-01T10:12:50;18.00;73.00
59146;DHT22;44928;53.074;6.646;2023-05-01T10:15:16;18.10;74.60
59146;DHT22;44928;53.074;6.646;2023-05-01T10:17:43;18.30;75.10
59146;DHT22;44928;53.074;6.646;2023-05-01T10:20:10;18.50;73.00
59146;DHT22;44928;53.074;6.646;2023-05-01T10:22:37;18.60;72.20
59146;DHT22;44928;53.074;6.646;2023-05-01T10:25:07;18.70;69.80
59146;DHT22;44928;53.074;6.646;2023-05-01T10:27:34;18.70;61.70
59146;DHT22;44928;53.074;6.646;2023-05-01T10:30:02;18.80;67.40
59146;DHT22;44928;53.074;6.646;2023-05-01T10:32:32;18.90;66.70
59146;DHT22;44928;53.074;6.646;2023-05-01T10:35:01;19.00;67.40
59146;DHT22;44928;53.074;6.646;2023-05-01T10:37:37;19.20;67.90
59146;DHT22;44928;53.074;6.646;2023-05-01T10:43:23;19.30;59.90
59146;DHT22;44928;53.074;6.646;2023-05-01T10:51:16;19.70;64.10
59146;DHT22;44928;53.074;6.646;2023-05-01T10:53:47;19.90;64.40
59146;DHT22;44928;53.074;6.646;2023-05-01T11:01:38;19.90;54.20
59146;DHT22;44928;53.074;6.646;2023-05-01T11:04:06;19.70;54.10
59146;DHT22;44928;53.074;6.646;2023-05-01T11:06:35;19.70;56.80
59146;DHT22;44928;53.074;6.646;2023-05-01T11:12:03;19.90;56.00
59146;DHT22;44928;53.074;6.646;2023-05-01T11:22:36;20.00;57.10
59146;DHT22;44928;53.074;6.646;2023-05-01T11:25:03;20.10;54.30
59146;DHT22;44928;53.074;6.646;2023-05-01T11:27:46;20.20;54.20
59146;DHT22;44928;53.074;6.646;2023-05-01T11:30:12;20.10;52.30
59146;DHT22;44928;53.074;6.646;2023-05-01T11:32:42;19.90;53.20
59146;DHT22;44928;53.074;6.646;2023-05-01T11:35:29;20.00;54.00
59146;DHT22;44928;53.074;6.646;2023-05-01T11:37:55;20.10;53.60
59146;DHT22;44928;53.074;6.646;2023-05-01T11:40:22;20.20;55.40
59146;DHT22;44928;53.074;6.646;2023-05-01T11:42:50;20.40;54.20
59146;DHT22;44928;53.074;6.646;2023-05-01T11:45:18;20.40;53.60
59146;DHT22;44928;53.074;6.646;2023-05-01T11:47:44;20.40;54.10
59146;DHT22;44928;53.074;6.646;2023-05-01T11:50:10;20.50;54.00
59146;DHT22;44928;53.074;6.646;2023-05-01T11:52:49;20.60;55.10
59146;DHT22;44928;53.074;6.646;2023-05-01T11:55:18;20.80;55.40
59146;DHT22;44928;53.074;6.646;2023-05-01T11:57:48;20.80;51.50
59146;DHT22;44928;53.074;6.646;2023-05-01T12:00:15;20.70;51.90
59146;DHT22;44928;53.074;6.646;2023-05-01T12:03:00;20.70;53.00
59146;DHT22;44928;53.074;6.646;2023-05-01T12:05:29;20.70;53.40
59146;DHT22;44928;53.074;6.646;2023-05-01T12:08:17;20.70;52.50
59146;DHT22;44928;53.074;6.646;2023-05-01T12:10:53;20.80;55.10
59146;DHT22;44928;53.074;6.646;2023-05-01T12:13:23;20.80;53.60
59146;DHT22;44928;53.074;6.646;2023-05-01T12:15:54;20.90;53.90
59146;DHT22;44928;53.074;6.646;2023-05-01T12:18:20;20.90;54.80
59146;DHT22;44928;53.074;6.646;2023-05-01T12:20:48;20.90;55.00
59146;DHT22;44928;53.074;6.646;2023-05-01T12:23:18;21.00;55.10
59146;DHT22;44928;53.074;6.646;2023-05-01T12:25:45;21.10;55.40
59146;DHT22;44928;53.074;6.646;2023-05-01T12:28:13;21.00;55.30
59146;DHT22;44928;53.074;6.646;2023-05-01T12:30:41;20.90;55.60
59146;DHT22;44928;53.074;6.646;2023-05-01T12:33:16;20.90;56.50
59146;DHT22;44928;53.074;6.646;2023-05-01T12:35:43;20.80;57.00
59146;DHT22;44928;53.074;6.646;2023-05-01T12:38:21;20.70;56.70
59146;DHT22;44928;53.074;6.646;2023-05-01T12:40:55;20.50;57.60
59146;DHT22;44928;53.074;6.646;2023-05-01T12:43:32;20.40;57.80
59146;DHT22;44928;53.074;6.646;2023-05-01T12:45:58;20.20;58.30
59146;DHT22;44928;53.074;6.646;2023-05-01T12:48:24;20.00;58.50
59146;DHT22;44928;53.074;6.646;2023-05-01T12:50:51;19.90;58.70
59146;DHT22;44928;53.074;6.646;2023-05-01T12:53:20;19.90;59.00
59146;DHT22;44928;53.074;6.646;2023-05-01T12:55:48;19.80;57.80
59146;DHT22;44928;53.074;6.646;2023-05-01T12:58:15;19.70;58.80
59146;DHT22;44928;53.074;6.646;2023-05-01T13:00:51;19.60;59.70
59146;DHT22;44928;53.074;6.646;2023-05-01T13:03:25;19.60;59.60
59146;DHT22;44928;53.074;6.646;2023-05-01T13:05:56;19.40;57.60
59146;DHT22;44928;53.074;6.646;2023-05-01T13:08:26;19.40;59.00
59146;DHT22;44928;53.074;6.646;2023-05-01T13:10:53;19.40;59.70
59146;DHT22;44928;53.074;6.646;2023-05-01T13:13:24;19.30;57.50
59146;DHT22;44928;53.074;6.646;2023-05-01T13:15:51;19.20;59.20
59146;DHT22;44928;53.074;6.646;2023-05-01T13:18:17;19.20;61.00
59146;DHT22;44928;53.074;6.646;2023-05-01T13:20:43;19.20;60.90
59146;DHT22;44928;53.074;6.646;2023-05-01T13:23:10;19.30;60.50
59146;DHT22;44928;53.074;6.646;2023-05-01T13:25:37;19.40;60.40
59146;DHT22;44928;53.074;6.646;2023-05-01T13:28:03;19.50;61.30
59146;DHT22;44928;53.074;6.646;2023-05-01T13:30:33;19.60;61.90
59146;DHT22;44928;53.074;6.646;2023-05-01T13:32:59;19.60;61.40
59146;DHT22;44928;53.074;6.646;2023-05-01T13:35:26;19.50;61.10
59146;DHT22;44928;53.074;6.646;2023-05-01T13:37:53;19.50;61.00
59146;DHT22;44928;53.074;6.646;2023-05-01T13:40:19;19.50;60.80
59146;DHT22;44928;53.074;6.646;2023-05-01T13:42:49;19.40;60.60
59146;DHT22;44928;53.074;6.646;2023-05-01T13:45:17;19.30;61.30
59146;DHT22;44928;53.074;6.646;2023-05-01T13:47:44;19.40;62.10
59146;DHT22;44928;53.074;6.646;2023-05-01T13:50:12;19.50;61.10
59146;DHT22;44928;53.074;6.646;2023-05-01T13:52:42;19.60;60.30
59146;DHT22;44928;53.074;6.646;2023-05-01T13:55:09;19.50;59.10
59146;DHT22;44928;53.074;6.646;2023-05-01T13:57:39;19.50;60.80
59146;DHT22;44928;53.074;6.646;2023-05-01T14:00:08;19.50;61.80
59146;DHT22;44928;53.074;6.646;2023-05-01T14:02:42;19.60;60.80
59146;DHT22;44928;53.074;6.646;2023-05-01T14:05:09;19.50;61.20
59146;DHT22;44928;53.074;6.646;2023-05-01T14:07:49;19.50;62.10
59146;DHT22;44928;53.074;6.646;2023-05-01T14:10:17;19.40;62.00
59146;DHT22;44928;53.074;6.646;2023-05-01T14:12:44;19.50;62.80
59146;DHT22;44928;53.074;6.646;2023-05-01T14:15:11;19.60;63.20
59146;DHT22;44928;53.074;6.646;2023-05-01T14:17:37;19.60;63.50
59146;DHT22;44928;53.074;6.646;2023-05-01T14:20:04;19.60;63.80
59146;DHT22;44928;53.074;6.646;2023-05-01T14:22:45;19.50;64.90
59146;DHT22;44928;53.074;6.646;2023-05-01T14:27:50;19.00;69.00
59146;DHT22;44928;53.074;6.646;2023-05-01T14:30:28;18.70;69.40
59146;DHT22;44928;53.074;6.646;2023-05-01T14:32:54;18.60;71.20
59146;DHT22;44928;53.074;6.646;2023-05-01T14:35:22;18.40;73.60
59146;DHT22;44928;53.074;6.646;2023-05-01T14:37:49;18.20;78.00
59146;DHT22;44928;53.074;6.646;2023-05-01T14:40:16;18.20;79.50
59146;DHT22;44928;53.074;6.646;2023-05-01T14:42:43;18.20;82.20
59146;DHT22;44928;53.074;6.646;2023-05-01T14:45:14;18.10;82.40
59146;DHT22;44928;53.074;6.646;2023-05-01T14:47:46;18.00;81.00
59146;DHT22;44928;53.074;6.646;2023-05-01T14:50:21;17.90;82.00
59146;DHT22;44928;53.074;6.646;2023-05-01T14:52:52;17.80;84.10
59146;DHT22;44928;53.074;6.646;2023-05-01T14:55:24;17.80;83.20
59146;DHT22;44928;53.074;6.646;2023-05-01T14:57:50;17.60;84.90
59146;DHT22;44928;53.074;6.646;2023-05-01T15:00:16;17.60;89.00
59146;DHT22;44928;53.074;6.646;2023-05-01T15:02:43;17.50;89.70
59146;DHT22;44928;53.074;6.646;2023-05-01T15:05:08;17.50;90.90
59146;DHT22;44928;53.074;6.646;2023-05-01T15:07:34;17.40;91.60
59146;DHT22;44928;53.074;6.646;2023-05-01T15:10:00;17.40;91.80
59146;DHT22;44928;53.074;6.646;2023-05-01T15:12:26;17.50;93.20
59146;DHT22;44928;53.074;6.646;2023-05-01T15:14:52;17.60;93.80
59146;DHT22;44928;53.074;6.646;2023-05-01T15:17:17;17.60;93.10
59146;DHT22;44928;53.074;6.646;2023-05-01T15:19:43;17.60;93.80
59146;DHT22;44928;53.074;6.646;2023-05-01T15:22:09;17.70;93.30
59146;DHT22;44928;53.074;6.646;2023-05-01T15:24:35;17.80;94.40
59146;DHT22;44928;53.074;6.646;2023-05-01T15:27:00;17.80;93.60
59146;DHT22;44928;53.074;6.646;2023-05-01T15:29:27;17.90;93.70
59146;DHT22;44928;53.074;6.646;2023-05-01T15:31:53;17.90;93.70
59146;DHT22;44928;53.074;6.646;2023-05-01T15:34:19;17.90;92.40
59146;DHT22;44928;53.074;6.646;2023-05-01T15:36:45;17.80;92.10
59146;DHT22;44928;53.074;6.646;2023-05-01T15:39:11;17.70;93.50
59146;DHT22;44928;53.074;6.646;2023-05-01T15:41:37;17.70;93.70
59146;DHT22;44928;53.074;6.646;2023-05-01T15:44:03;17.70;93.50
59146;DHT22;44928;53.074;6.646;2023-05-01T15:46:35;17.60;93.50
59146;DHT22;44928;53.074;6.646;2023-05-01T15:49:02;17.60;93.80
59146;DHT22;44928;53.074;6.646;2023-05-01T15:51:29;17.50;95.60
59146;DHT22;44928;53.074;6.646;2023-05-01T15:53:56;17.60;95.70
59146;DHT22;44928;53.074;6.646;2023-05-01T15:56:23;17.60;95.30
59146;DHT22;44928;53.074;6.646;2023-05-01T15:58:49;17.70;95.80
59146;DHT22;44928;53.074;6.646;2023-05-01T16:01:15;17.70;94.50
59146;DHT22;44928;53.074;6.646;2023-05-01T16:03:45;17.70;95.00
59146;DHT22;44928;53.074;6.646;2023-05-01T16:06:12;17.80;96.60
59146;DHT22;44928;53.074;6.646;2023-05-01T16:08:38;17.80;97.10
59146;DHT22;44928;53.074;6.646;2023-05-01T16:11:04;17.90;95.00
59146;DHT22;44928;53.074;6.646;2023-05-01T16:13:30;17.90;96.50
59146;DHT22;44928;53.074;6.646;2023-05-01T16:15:56;18.00;97.40
59146;DHT22;44928;53.074;6.646;2023-05-01T16:18:23;18.00;94.80
59146;DHT22;44928;53.074;6.646;2023-05-01T16:20:49;18.00;93.40
59146;DHT22;44928;53.074;6.646;2023-05-01T16:23:19;17.90;94.10
59146;DHT22;44928;53.074;6.646;2023-05-01T16:25:45;17.80;95.10
59146;DHT22;44928;53.074;6.646;2023-05-01T16:28:11;17.70;96.20
59146;DHT22;44928;53.074;6.646;2023-05-01T16:30:42;17.70;96.30